sensor_id;sensor_type;location;lat;lon;timestamp;temperature;humidity
17092;DHT22;8661;45.700;4.880;2023-07-30T00:00:24;20.40;99.90
17092;DHT22;8661;45.700;4.880;2023-07-30T00:02:51;20.40;99.90
17092;DHT22;8661;45.700;4.880;2023-07-30T00:05:18;20.40;99.90
17092;DHT22;8661;45.700;4.880;2023-07-30T00:07:45;20.30;99.90
17092;DHT22;8661;45.700;4.880;2023-07-30T00:10:11;20.30;99.90
17092;DHT22;8661;45.700;4.880;2023-07-30T00:12:40;20.30;99.90
17092;DHT22;8661;45.700;4.880;2023-07-30T00:15:08;20.20;99.90
17092;DHT22;8661;45.700;4.880;2023-07-30T00:17:35;20.20;99.90
17092;DHT22;8661;45.700;4.880;2023-07-30T00:20:02;20.20;99.90
17092;DHT22;8661;45.700;4.880;2023-07-30T00:22:29;20.20;99.90
17092;DHT22;8661;45.700;4.880;2023-07-30T00:24:56;20.10;99.90
17092;DHT22;8661;45.700;4.880;2023-07-30T00:27:23;20.10;99.90
17092;DHT22;8661;45.700;4.880;2023-07-30T00:29:54;20.00;99.90
17092;DHT22;8661;45.700;4.880;2023-07-30T00:32:20;20.00;99.90
17092;DHT22;8661;45.700;4.880;2023-07-30T00:34:47;19.90;99.90
17092;DHT22;8661;45.700;4.880;2023-07-30T00:37:14;19.90;99.90
17092;DHT22;8661;45.700;4.880;2023-07-30T00:39:41;19.80;99.90
17092;DHT22;8661;45.700;4.880;2023-07-30T00:42:08;19.80;99.90
17092;DHT22;8661;45.700;4.880;2023-07-30T00:44:35;19.80;99.90
17092;DHT22;8661;45.700;4.880;2023-07-30T00:47:03;19.80;99.90
17092;DHT22;8661;45.700;4.880;2023-07-30T00:49:30;19.80;99.90
17092;DHT22;8661;45.700;4.880;2023-07-30T00:51:57;19.80;99.90
17092;DHT22;8661;45.700;4.880;2023-07-30T00:54:25;19.70;99.90
17092;DHT22;8661;45.700;4.880;2023-07-30T00:56:52;19.70;99.90
17092;DHT22;8661;45.700;4.880;2023-07-30T00:59:20;19.70;99.90
17092;DHT22;8661;45.700;4.880;2023-07-30T01:01:47;19.70;99.90
17092;DHT22;8661;45.700;4.880;2023-07-30T01:04:15;19.60;99.90
17092;DHT22;8661;45.700;4.880;2023-07-30T01:06:43;19.60;99.90
17092;DHT22;8661;45.700;4.880;2023-07-30T01:09:10;19.60;99.90
17092;DHT22;8661;45.700;4.880;2023-07-30T01:11:37;19.60;99.90
17092;DHT22;8661;45.700;4.880;2023-07-30T01:14:05;19.60;99.90
17092;DHT22;8661;45.700;4.880;2023-07-30T01:16:32;19.50;99.90
17092;DHT22;8661;45.700;4.880;2023-07-30T01:18:59;19.50;99.90
17092;DHT22;8661;45.700;4.880;2023-07-30T01:21:31;19.50;99.90
17092;DHT22;8661;45.700;4.880;2023-07-30T01:23:58;19.50;99.90
17092;DHT22;8661;45.700;4.880;2023-07-30T01:26:30;19.50;99.90
17092;DHT22;8661;45.700;4.880;2023-07-30T01:29:01;19.50;99.90
17092;DHT22;8661;45.700;4.880;2023-07-30T01:31:32;19.50;99.90
17092;DHT22;8661;45.700;4.880;2023-07-30T01:34:02;19.40;99.90
17092;DHT22;8661;45.700;4.880;2023-07-30T01:36:32;19.40;99.90
17092;DHT22;8661;45.700;4.880;2023-07-30T01:38:59;19.40;99.90
17092;DHT22;8661;45.700;4.880;2023-07-30T01:41:26;19.40;99.90
17092;DHT22;8661;45.700;4.880;2023-07-30T01:43:54;19.40;99.90
17092;DHT22;8661;45.700;4.880;2023-07-30T01:46:21;19.40;99.90
17092;DHT22;8661;45.700;4.880;2023-07-30T01:48:48;19.40;99.90
17092;DHT22;8661;45.700;4.880;2023-07-30T01:51:14;19.40;99.90
17092;DHT22;8661;45.700;4.880;2023-07-30T01:53:43;19.40;99.90
17092;DHT22;8661;45.700;4.880;2023-07-30T01:56:11;19.40;99.90
17092;DHT22;8661;45.700;4.880;2023-07-30T01:58:38;19.40;99.90
17092;DHT22;8661;45.700;4.880;2023-07-30T02:01:05;19.40;99.90
17092;DHT22;8661;45.700;4.880;2023-07-30T02:03:32;19.40;99.90
17092;DHT22;8661;45.700;4.880;2023-07-30T02:05:59;19.30;99.90
17092;DHT22;8661;45.700;4.880;2023-07-30T02:08:26;19.30;99.90
17092;DHT22;8661;45.700;4.880;2023-07-30T02:10:57;19.30;99.90
17092;DHT22;8661;45.700;4.880;2023-07-30T02:13:25;19.30;99.90
17092;DHT22;8661;45.700;4.880;2023-07-30T02:15:52;19.30;99.90
17092;DHT22;8661;45.700;4.880;2023-07-30T02:18:19;19.20;99.90
17092;DHT22;8661;45.700;4.880;2023-07-30T02:20:46;19.20;99.90
17092;DHT22;8661;45.700;4.880;2023-07-30T02:23:14;19.20;99.90
17092;DHT22;8661;45.700;4.880;2023-07-30T02:25:42;19.20;99.90
17092;DHT22;8661;45.700;4.880;2023-07-30T02:28:10;19.20;99.90
17092;DHT22;8661;45.700;4.880;2023-07-30T02:30:37;19.20;99.90
17092;DHT22;8661;45.700;4.880;2023-07-30T02:33:04;19.20;99.90
17092;DHT22;8661;45.700;4.880;2023-07-30T02:35:31;19.10;99.90
17092;DHT22;8661;45.700;4.880;2023-07-30T02:37:58;19.00;99.90
17092;DHT22;8661;45.700;4.880;2023-07-30T02:40:24;19.00;99.90
17092;DHT22;8661;45.700;4.880;2023-07-30T02:42:51;19.00;99.90
17092;DHT22;8661;45.700;4.880;2023-07-30T02:45:19;19.10;99.90
17092;DHT22;8661;45.700;4.880;2023-07-30T02:47:46;19.00;99.90
17092;DHT22;8661;45.700;4.880;2023-07-30T02:50:13;19.00;99.90
17092;DHT22;8661;45.700;4.880;2023-07-30T02:52:40;19.00;99.90
17092;DHT22;8661;45.700;4.880;2023-07-30T02:55:07;19.00;99.90
17092;DHT22;8661;45.700;4.880;2023-07-30T02:57:34;19.10;99.90
17092;DHT22;8661;45.700;4.880;2023-07-30T03:00:02;19.00;99.90
17092;DHT22;8661;45.700;4.880;2023-07-30T03:02:31;19.10;99.90
17092;DHT22;8661;45.700;4.880;2023-07-30T03:04:57;19.00;99.90
17092;DHT22;8661;45.700;4.880;2023-07-30T03:07:25;19.00;99.90
17092;DHT22;8661;45.700;4.880;2023-07-30T03:09:51;19.10;99.90
17092;DHT22;8661;45.700;4.880;2023-07-30T03:12:18;19.10;99.90
17092;DHT22;8661;45.700;4.880;2023-07-30T03:14:45;19.10;99.90
17092;DHT22;8661;45.700;4.880;2023-07-30T03:17:12;19.10;99.90
17092;DHT22;8661;45.700;4.880;2023-07-30T03:19:40;19.20;99.90
17092;DHT22;8661;45.700;4.880;2023-07-30T03:22:07;19.10;99.90
17092;DHT22;8661;45.700;4.880;2023-07-30T03:24:34;19.10;99.90
17092;DHT22;8661;45.700;4.880;2023-07-30T03:27:01;19.10;99.90
17092;DHT22;8661;45.700;4.880;2023-07-30T03:29:28;19.10;99.90
17092;DHT22;8661;45.700;4.880;2023-07-30T03:31:55;19.00;99.90
17092;DHT22;8661;45.700;4.880;2023-07-30T03:34:21;19.00;99.90
17092;DHT22;8661;45.700;4.880;2023-07-30T03:36:50;19.00;99.90
17092;DHT22;8661;45.700;4.880;2023-07-30T03:39:17;19.00;99.90
17092;DHT22;8661;45.700;4.880;2023-07-30T03:41:43;19.00;99.90
17092;DHT22;8661;45.700;4.880;2023-07-30T03:44:10;19.00;99.90
17092;DHT22;8661;45.700;4.880;2023-07-30T03:46:37;18.90;99.90
17092;DHT22;8661;45.700;4.880;2023-07-30T03:49:03;18.90;99.90
17092;DHT22;8661;45.700;4.880;2023-07-30T03:51:31;18.90;99.90
17092;DHT22;8661;45.700;4.880;2023-07-30T03:53:59;18.90;99.90
17092;DHT22;8661;45.700;4.880;2023-07-30T03:56:26;18.90;99.90
17092;DHT22;8661;45.700;4.880;2023-07-30T03:58:53;18.90;99.90
17092;DHT22;8661;45.700;4.880;2023-07-30T04:01:19;18.90;99.90
17092;DHT22;8661;45.700;4.880;2023-07-30T04:03:46;18.80;99.90
17092;DHT22;8661;45.700;4.880;2023-07-30T04:06:13;18.80;99.90
17092;DHT22;8661;45.700;4.880;2023-07-30T04:08:40;18.80;99.90
17092;DHT22;8661;45.700;4.880;2023-07-30T04:11:08;18.90;99.90
17092;DHT22;8661;45.700;4.880;2023-07-30T04:13:35;19.00;99.90
17092;DHT22;8661;45.700;4.880;2023-07-30T04:16:02;19.00;99.90
17092;DHT22;8661;45.700;4.880;2023-07-30T04:18:29;19.10;99.90
17092;DHT22;8661;45.700;4.880;2023-07-30T04:20:56;19.10;99.90
17092;DHT22;8661;45.700;4.880;2023-07-30T04:23:23;19.20;99.90
17092;DHT22;8661;45.700;4.880;2023-07-30T04:25:50;19.20;99.90
17092;DHT22;8661;45.700;4.880;2023-07-30T04:28:18;19.20;99.90
17092;DHT22;8661;45.700;4.880;2023-07-30T04:30:45;19.20;99.90
17092;DHT22;8661;45.700;4.880;2023-07-30T04:33:12;19.20;99.90
17092;DHT22;8661;45.700;4.880;2023-07-30T04:35:40;19.30;99.90
17092;DHT22;8661;45.700;4.880;2023-07-30T04:38:06;19.30;99.90
17092;DHT22;8661;45.700;4.880;2023-07-30T04:40:36;19.30;99.90
17092;DHT22;8661;45.700;4.880;2023-07-30T04:43:03;19.30;99.90
17092;DHT22;8661;45.700;4.880;2023-07-30T04:45:31;19.40;99.90
17092;DHT22;8661;45.700;4.880;2023-07-30T04:47:58;19.40;99.90
17092;DHT22;8661;45.700;4.880;2023-07-30T04:50:25;19.50;99.90
17092;DHT22;8661;45.700;4.880;2023-07-30T04:52:52;19.50;99.90
17092;DHT22;8661;45.700;4.880;2023-07-30T04:55:18;19.60;99.90
17092;DHT22;8661;45.700;4.880;2023-07-30T04:57:45;19.60;99.90
17092;DHT22;8661;45.700;4.880;2023-07-30T05:00:12;19.70;99.90
17092;DHT22;8661;45.700;4.880;2023-07-30T05:02:41;19.70;99.90
17092;DHT22;8661;45.700;4.880;2023-07-30T05:05:08;19.80;99.90
17092;DHT22;8661;45.700;4.880;2023-07-30T05:07:35;19.90;99.90
17092;DHT22;8661;45.700;4.880;2023-07-30T05:10:05;19.90;99.90
17092;DHT22;8661;45.700;4.880;2023-07-30T05:12:35;20.00;99.90
17092;DHT22;8661;45.700;4.880;2023-07-30T05:15:02;20.00;99.90
17092;DHT22;8661;45.700;4.880;2023-07-30T05:17:30;20.00;99.90
17092;DHT22;8661;45.700;4.880;2023-07-30T05:19:58;20.00;99.90
17092;DHT22;8661;45.700;4.880;2023-07-30T05:22:25;20.10;99.90
17092;DHT22;8661;45.700;4.880;2023-07-30T05:24:52;20.20;99.90
17092;DHT22;8661;45.700;4.880;2023-07-30T05:27:18;20.20;99.90
17092;DHT22;8661;45.700;4.880;2023-07-30T05:29:45;20.20;99.90
17092;DHT22;8661;45.700;4.880;2023-07-30T05:32:12;20.30;99.90
17092;DHT22;8661;45.700;4.880;2023-07-30T05:34:39;20.40;99.90
17092;DHT22;8661;45.700;4.880;2023-07-30T05:37:07;20.40;99.90
17092;DHT22;8661;45.700;4.880;2023-07-30T05:39:34;20.30;99.90
17092;DHT22;8661;45.700;4.880;2023-07-30T05:42:01;20.30;99.90
17092;DHT22;8661;45.700;4.880;2023-07-30T05:44:28;20.30;99.90
17092;DHT22;8661;45.700;4.880;2023-07-30T05:46:55;20.30;99.90
17092;DHT22;8661;45.700;4.880;2023-07-30T05:49:21;20.20;99.90
17092;DHT22;8661;45.700;4.880;2023-07-30T05:51:48;20.20;99.90
17092;DHT22;8661;45.700;4.880;2023-07-30T05:54:17;20.20;99.90
17092;DHT22;8661;45.700;4.880;2023-07-30T05:56:44;20.20;99.90
17092;DHT22;8661;45.700;4.880;2023-07-30T05:59:10;20.20;99.90
17092;DHT22;8661;45.700;4.880;2023-07-30T06:01:38;20.20;99.90
17092;DHT22;8661;45.700;4.880;2023-07-30T06:04:05;20.20;99.90
17092;DHT22;8661;45.700;4.880;2023-07-30T06:06:32;20.30;99.90
17092;DHT22;8661;45.700;4.880;2023-07-30T06:08:59;20.70;99.90
17092;DHT22;8661;45.700;4.880;2023-07-30T06:11:27;21.20;99.90
17092;DHT22;8661;45.700;4.880;2023-07-30T06:13:54;21.60;99.90
17092;DHT22;8661;45.700;4.880;2023-07-30T06:16:20;22.00;99.90
17092;DHT22;8661;45.700;4.880;2023-07-30T06:18:47;22.40;99.90
17092;DHT22;8661;45.700;4.880;2023-07-30T06:21:14;22.80;99.90
17092;DHT22;8661;45.700;4.880;2023-07-30T06:23:41;22.90;99.90
17092;DHT22;8661;45.700;4.880;2023-07-30T06:26:08;23.40;99.90
17092;DHT22;8661;45.700;4.880;2023-07-30T06:28:36;23.90;99.90
17092;DHT22;8661;45.700;4.880;2023-07-30T06:31:03;24.20;99.90
17092;DHT22;8661;45.700;4.880;2023-07-30T06:33:30;24.60;99.90
17092;DHT22;8661;45.700;4.880;2023-07-30T06:35:57;25.00;99.90
17092;DHT22;8661;45.700;4.880;2023-07-30T06:38:24;25.30;99.90
17092;DHT22;8661;45.700;4.880;2023-07-30T06:40:51;25.30;99.90
17092;DHT22;8661;45.700;4.880;2023-07-30T06:43:17;25.50;99.90
17092;DHT22;8661;45.700;4.880;2023-07-30T06:45:46;25.70;99.90
17092;DHT22;8661;45.700;4.880;2023-07-30T06:48:12;26.00;99.90
17092;DHT22;8661;45.700;4.880;2023-07-30T06:50:41;26.30;99.90
17092;DHT22;8661;45.700;4.880;2023-07-30T06:53:07;26.50;99.90
17092;DHT22;8661;45.700;4.880;2023-07-30T06:55:34;26.80;99.90
17092;DHT22;8661;45.700;4.880;2023-07-30T06:58:01;27.20;99.90
17092;DHT22;8661;45.700;4.880;2023-07-30T07:00:29;27.20;99.90
17092;DHT22;8661;45.700;4.880;2023-07-30T07:02:57;27.20;99.90
17092;DHT22;8661;45.700;4.880;2023-07-30T07:05:24;27.50;99.90
17092;DHT22;8661;45.700;4.880;2023-07-30T07:07:51;27.80;99.90
17092;DHT22;8661;45.700;4.880;2023-07-30T07:10:18;28.10;99.90
17092;DHT22;8661;45.700;4.880;2023-07-30T07:12:44;28.40;99.90
17092;DHT22;8661;45.700;4.880;2023-07-30T07:15:11;28.40;99.90
17092;DHT22;8661;45.700;4.880;2023-07-30T07:17:38;28.30;99.90
17092;DHT22;8661;45.700;4.880;2023-07-30T07:20:07;28.50;99.90
17092;DHT22;8661;45.700;4.880;2023-07-30T07:22:36;28.60;99.90
17092;DHT22;8661;45.700;4.880;2023-07-30T07:25:03;28.60;99.90
17092;DHT22;8661;45.700;4.880;2023-07-30T07:27:30;28.90;99.90
17092;DHT22;8661;45.700;4.880;2023-07-30T07:29:57;29.40;99.90
17092;DHT22;8661;45.700;4.880;2023-07-30T07:32:24;29.60;99.90
17092;DHT22;8661;45.700;4.880;2023-07-30T07:34:51;29.90;98.70
17092;DHT22;8661;45.700;4.880;2023-07-30T07:37:20;30.10;97.40
17092;DHT22;8661;45.700;4.880;2023-07-30T07:39:46;30.40;97.10
17092;DHT22;8661;45.700;4.880;2023-07-30T07:42:13;30.50;95.60
17092;DHT22;8661;45.700;4.880;2023-07-30T07:44:40;30.80;95.00
17092;DHT22;8661;45.700;4.880;2023-07-30T07:47:09;30.90;93.10
17092;DHT22;8661;45.700;4.880;2023-07-30T07:49:36;30.80;93.10
17092;DHT22;8661;45.700;4.880;2023-07-30T07:52:03;31.10;92.50
17092;DHT22;8661;45.700;4.880;2023-07-30T07:54:31;31.40;91.70
17092;DHT22;8661;45.700;4.880;2023-07-30T07:56:58;31.50;91.40
17092;DHT22;8661;45.700;4.880;2023-07-30T07:59:25;31.70;90.50
17092;DHT22;8661;45.700;4.880;2023-07-30T08:01:53;31.30;90.50
17092;DHT22;8661;45.700;4.880;2023-07-30T08:04:20;30.50;90.60
17092;DHT22;8661;45.700;4.880;2023-07-30T08:06:47;29.80;91.50
17092;DHT22;8661;45.700;4.880;2023-07-30T08:09:17;29.30;92.10
17092;DHT22;8661;45.700;4.880;2023-07-30T08:11:45;29.50;92.60
17092;DHT22;8661;45.700;4.880;2023-07-30T08:14:12;30.40;91.90
17092;DHT22;8661;45.700;4.880;2023-07-30T08:16:39;30.60;90.90
17092;DHT22;8661;45.700;4.880;2023-07-30T08:19:06;30.90;90.80
17092;DHT22;8661;45.700;4.880;2023-07-30T08:21:33;31.20;88.60
17092;DHT22;8661;45.700;4.880;2023-07-30T08:23:59;31.50;88.10
17092;DHT22;8661;45.700;4.880;2023-07-30T08:26:26;31.80;86.70
17092;DHT22;8661;45.700;4.880;2023-07-30T08:28:55;31.70;85.90
17092;DHT22;8661;45.700;4.880;2023-07-30T08:31:21;31.20;89.10
17092;DHT22;8661;45.700;4.880;2023-07-30T08:33:48;31.20;88.60
17092;DHT22;8661;45.700;4.880;2023-07-30T08:36:15;30.90;86.70
17092;DHT22;8661;45.700;4.880;2023-07-30T08:38:42;30.40;88.50
17092;DHT22;8661;45.700;4.880;2023-07-30T08:41:09;30.00;89.50
17092;DHT22;8661;45.700;4.880;2023-07-30T08:43:36;30.00;89.20
17092;DHT22;8661;45.700;4.880;2023-07-30T08:46:04;30.80;88.10
17092;DHT22;8661;45.700;4.880;2023-07-30T08:48:31;31.70;86.90
17092;DHT22;8661;45.700;4.880;2023-07-30T08:50:59;31.60;84.40
17092;DHT22;8661;45.700;4.880;2023-07-30T08:53:27;31.40;82.90
17092;DHT22;8661;45.700;4.880;2023-07-30T08:55:54;30.70;82.90
17092;DHT22;8661;45.700;4.880;2023-07-30T08:58:23;30.30;84.40
17092;DHT22;8661;45.700;4.880;2023-07-30T09:00:51;31.20;84.70
17092;DHT22;8661;45.700;4.880;2023-07-30T09:03:23;31.90;80.90
17092;DHT22;8661;45.700;4.880;2023-07-30T09:05:51;32.60;79.70
17092;DHT22;8661;45.700;4.880;2023-07-30T09:08:18;33.40;77.60
17092;DHT22;8661;45.700;4.880;2023-07-30T09:10:45;33.90;75.40
17092;DHT22;8661;45.700;4.880;2023-07-30T09:13:20;34.30;74.10
17092;DHT22;8661;45.700;4.880;2023-07-30T09:15:48;34.60;71.50
17092;DHT22;8661;45.700;4.880;2023-07-30T09:18:16;34.50;72.10
17092;DHT22;8661;45.700;4.880;2023-07-30T09:20:45;34.80;71.40
17092;DHT22;8661;45.700;4.880;2023-07-30T09:23:12;35.10;70.20
17092;DHT22;8661;45.700;4.880;2023-07-30T09:25:39;35.50;68.50
17092;DHT22;8661;45.700;4.880;2023-07-30T09:28:06;35.60;67.60
17092;DHT22;8661;45.700;4.880;2023-07-30T09:30:33;35.90;66.80
17092;DHT22;8661;45.700;4.880;2023-07-30T09:33:00;36.20;64.80
17092;DHT22;8661;45.700;4.880;2023-07-30T09:35:27;36.30;64.50
17092;DHT22;8661;45.700;4.880;2023-07-30T09:38:00;36.40;62.90
17092;DHT22;8661;45.700;4.880;2023-07-30T09:40:32;36.90;63.30
17092;DHT22;8661;45.700;4.880;2023-07-30T09:42:59;37.00;62.50
17092;DHT22;8661;45.700;4.880;2023-07-30T09:45:26;37.00;60.90
17092;DHT22;8661;45.700;4.880;2023-07-30T09:47:54;37.00;60.50
17092;DHT22;8661;45.700;4.880;2023-07-30T09:50:23;37.30;60.00
17092;DHT22;8661;45.700;4.880;2023-07-30T09:52:50;37.40;59.90
17092;DHT22;8661;45.700;4.880;2023-07-30T09:55:18;37.40;59.60
17092;DHT22;8661;45.700;4.880;2023-07-30T09:57:45;37.20;58.60
17092;DHT22;8661;45.700;4.880;2023-07-30T10:00:12;37.20;59.20
17092;DHT22;8661;45.700;4.880;2023-07-30T10:02:41;37.50;58.90
17092;DHT22;8661;45.700;4.880;2023-07-30T10:05:10;37.70;58.20
17092;DHT22;8661;45.700;4.880;2023-07-30T10:07:42;37.80;56.60
17092;DHT22;8661;45.700;4.880;2023-07-30T10:10:11;37.00;56.00
17092;DHT22;8661;45.700;4.880;2023-07-30T10:12:41;36.30;57.60
17092;DHT22;8661;45.700;4.880;2023-07-30T10:15:10;36.80;56.60
17092;DHT22;8661;45.700;4.880;2023-07-30T10:17:37;36.90;57.30
17092;DHT22;8661;45.700;4.880;2023-07-30T10:20:20;37.40;57.70
17092;DHT22;8661;45.700;4.880;2023-07-30T10:22:51;37.90;56.50
17092;DHT22;8661;45.700;4.880;2023-07-30T10:25:21;37.70;55.30
17092;DHT22;8661;45.700;4.880;2023-07-30T10:27:52;37.00;55.70
17092;DHT22;8661;45.700;4.880;2023-07-30T10:30:20;37.30;56.80
17092;DHT22;8661;45.700;4.880;2023-07-30T10:33:03;37.70;56.60
17092;DHT22;8661;45.700;4.880;2023-07-30T10:35:41;38.00;53.90
17092;DHT22;8661;45.700;4.880;2023-07-30T10:38:19;38.20;55.60
17092;DHT22;8661;45.700;4.880;2023-07-30T10:41:04;38.70;54.10
17092;DHT22;8661;45.700;4.880;2023-07-30T10:43:34;38.90;52.60
17092;DHT22;8661;45.700;4.880;2023-07-30T10:46:01;39.00;53.60
17092;DHT22;8661;45.700;4.880;2023-07-30T10:48:33;39.20;53.80
17092;DHT22;8661;45.700;4.880;2023-07-30T10:51:01;39.20;53.70
17092;DHT22;8661;45.700;4.880;2023-07-30T10:53:28;39.20;52.70
17092;DHT22;8661;45.700;4.880;2023-07-30T10:55:57;38.80;53.00
17092;DHT22;8661;45.700;4.880;2023-07-30T10:58:26;39.10;53.70
17092;DHT22;8661;45.700;4.880;2023-07-30T11:00:55;39.30;53.00
17092;DHT22;8661;45.700;4.880;2023-07-30T11:03:24;39.40;53.10
17092;DHT22;8661;45.700;4.880;2023-07-30T11:05:52;39.20;52.40
17092;DHT22;8661;45.700;4.880;2023-07-30T11:08:30;39.30;53.10
17092;DHT22;8661;45.700;4.880;2023-07-30T11:10:58;39.40;52.20
17092;DHT22;8661;45.700;4.880;2023-07-30T11:13:25;39.70;52.40
17092;DHT22;8661;45.700;4.880;2023-07-30T11:15:52;39.00;51.50
17092;DHT22;8661;45.700;4.880;2023-07-30T11:18:20;38.80;51.40
17092;DHT22;8661;45.700;4.880;2023-07-30T11:20:49;38.80;50.80
17092;DHT22;8661;45.700;4.880;2023-07-30T11:23:18;38.80;51.10
17092;DHT22;8661;45.700;4.880;2023-07-30T11:25:48;39.10;52.20
17092;DHT22;8661;45.700;4.880;2023-07-30T11:28:27;39.30;50.90
17092;DHT22;8661;45.700;4.880;2023-07-30T11:30:56;39.10;51.10
17092;DHT22;8661;45.700;4.880;2023-07-30T11:33:25;39.40;51.60
17092;DHT22;8661;45.700;4.880;2023-07-30T11:35:53;39.90;51.50
17092;DHT22;8661;45.700;4.880;2023-07-30T11:38:20;40.20;51.00
17092;DHT22;8661;45.700;4.880;2023-07-30T11:40:47;40.30;50.00
17092;DHT22;8661;45.700;4.880;2023-07-30T11:43:14;40.30;50.60
17092;DHT22;8661;45.700;4.880;2023-07-30T11:45:41;40.10;50.50
17092;DHT22;8661;45.700;4.880;2023-07-30T11:48:09;40.40;50.00
17092;DHT22;8661;45.700;4.880;2023-07-30T11:50:48;40.50;50.20
17092;DHT22;8661;45.700;4.880;2023-07-30T11:53:15;40.90;50.00
17092;DHT22;8661;45.700;4.880;2023-07-30T11:55:43;41.10;49.60
17092;DHT22;8661;45.700;4.880;2023-07-30T11:58:12;41.00;48.80
17092;DHT22;8661;45.700;4.880;2023-07-30T12:00:39;40.90;47.40
17092;DHT22;8661;45.700;4.880;2023-07-30T12:03:10;41.00;47.20
17092;DHT22;8661;45.700;4.880;2023-07-30T12:05:38;41.00;46.20
17092;DHT22;8661;45.700;4.880;2023-07-30T12:08:13;41.00;46.70
17092;DHT22;8661;45.700;4.880;2023-07-30T12:10:43;41.10;46.30
17092;DHT22;8661;45.700;4.880;2023-07-30T12:13:15;41.30;47.40
17092;DHT22;8661;45.700;4.880;2023-07-30T12:15:50;40.90;45.60
17092;DHT22;8661;45.700;4.880;2023-07-30T12:18:17;40.50;46.30
17092;DHT22;8661;45.700;4.880;2023-07-30T12:20:44;40.60;47.50
17092;DHT22;8661;45.700;4.880;2023-07-30T12:23:12;40.70;45.10
17092;DHT22;8661;45.700;4.880;2023-07-30T12:25:39;40.50;44.80
17092;DHT22;8661;45.700;4.880;2023-07-30T12:28:06;40.50;45.90
17092;DHT22;8661;45.700;4.880;2023-07-30T12:30:33;40.50;46.20
17092;DHT22;8661;45.700;4.880;2023-07-30T12:33:02;40.70;45.80
17092;DHT22;8661;45.700;4.880;2023-07-30T12:35:29;40.90;47.40
17092;DHT22;8661;45.700;4.880;2023-07-30T12:37:56;41.00;47.60
17092;DHT22;8661;45.700;4.880;2023-07-30T12:40:25;40.90;47.60
17092;DHT22;8661;45.700;4.880;2023-07-30T12:42:52;41.00;47.00
17092;DHT22;8661;45.700;4.880;2023-07-30T12:45:19;40.90;46.00
17092;DHT22;8661;45.700;4.880;2023-07-30T12:47:46;40.90;46.00
17092;DHT22;8661;45.700;4.880;2023-07-30T12:50:12;40.70;46.00
17092;DHT22;8661;45.700;4.880;2023-07-30T12:52:40;40.40;46.30
17092;DHT22;8661;45.700;4.880;2023-07-30T12:55:07;40.40;46.20
17092;DHT22;8661;45.700;4.880;2023-07-30T12:57:35;40.40;47.20
17092;DHT22;8661;45.700;4.880;2023-07-30T13:00:02;40.60;46.30
17092;DHT22;8661;45.700;4.880;2023-07-30T13:02:30;40.60;46.40
17092;DHT22;8661;45.700;4.880;2023-07-30T13:04:59;40.50;46.30
17092;DHT22;8661;45.700;4.880;2023-07-30T13:07:26;40.40;46.00
17092;DHT22;8661;45.700;4.880;2023-07-30T13:10:06;40.30;46.30
17092;DHT22;8661;45.700;4.880;2023-07-30T13:12:35;40.30;45.50
17092;DHT22;8661;45.700;4.880;2023-07-30T13:15:03;40.30;45.70
17092;DHT22;8661;45.700;4.880;2023-07-30T13:17:29;40.20;46.00
17092;DHT22;8661;45.700;4.880;2023-07-30T13:19:57;40.30;45.80
17092;DHT22;8661;45.700;4.880;2023-07-30T13:22:24;40.10;46.60
17092;DHT22;8661;45.700;4.880;2023-07-30T13:24:51;39.90;46.70
17092;DHT22;8661;45.700;4.880;2023-07-30T13:27:18;39.80;47.60
17092;DHT22;8661;45.700;4.880;2023-07-30T13:29:46;39.70;47.20
17092;DHT22;8661;45.700;4.880;2023-07-30T13:32:14;39.80;47.40
17092;DHT22;8661;45.700;4.880;2023-07-30T13:34:41;39.60;49.10
17092;DHT22;8661;45.700;4.880;2023-07-30T13:37:08;39.60;48.70
17092;DHT22;8661;45.700;4.880;2023-07-30T13:39:35;39.60;48.90
17092;DHT22;8661;45.700;4.880;2023-07-30T13:42:02;39.40;48.40
17092;DHT22;8661;45.700;4.880;2023-07-30T13:44:29;38.80;48.20
17092;DHT22;8661;45.700;4.880;2023-07-30T13:46:57;38.70;49.20
17092;DHT22;8661;45.700;4.880;2023-07-30T13:49:24;38.80;48.90
17092;DHT22;8661;45.700;4.880;2023-07-30T13:51:51;38.80;49.80
17092;DHT22;8661;45.700;4.880;2023-07-30T13:54:18;38.80;49.50
17092;DHT22;8661;45.700;4.880;2023-07-30T13:56:45;38.70;49.70
17092;DHT22;8661;45.700;4.880;2023-07-30T13:59:12;38.80;48.40
17092;DHT22;8661;45.700;4.880;2023-07-30T14:01:38;38.90;49.20
17092;DHT22;8661;45.700;4.880;2023-07-30T14:04:07;38.80;50.40
17092;DHT22;8661;45.700;4.880;2023-07-30T14:06:33;38.80;49.60
17092;DHT22;8661;45.700;4.880;2023-07-30T14:09:00;38.80;49.00
17092;DHT22;8661;45.700;4.880;2023-07-30T14:11:28;39.00;49.00
17092;DHT22;8661;45.700;4.880;2023-07-30T14:13:55;39.00;48.20
17092;DHT22;8661;45.700;4.880;2023-07-30T14:16:23;39.30;48.30
17092;DHT22;8661;45.700;4.880;2023-07-30T14:18:50;39.50;47.50
17092;DHT22;8661;45.700;4.880;2023-07-30T14:21:18;39.50;47.00
17092;DHT22;8661;45.700;4.880;2023-07-30T14:23:45;39.50;46.70
17092;DHT22;8661;45.700;4.880;2023-07-30T14:26:12;39.90;46.90
17092;DHT22;8661;45.700;4.880;2023-07-30T14:28:39;40.10;46.80
17092;DHT22;8661;45.700;4.880;2023-07-30T14:31:06;40.50;46.40
17092;DHT22;8661;45.700;4.880;2023-07-30T14:33:32;40.70;46.00
17092;DHT22;8661;45.700;4.880;2023-07-30T14:35:59;40.20;46.10
17092;DHT22;8661;45.700;4.880;2023-07-30T14:38:28;39.30;47.90
17092;DHT22;8661;45.700;4.880;2023-07-30T14:40:56;38.20;47.30
17092;DHT22;8661;45.700;4.880;2023-07-30T14:43:23;37.90;47.60
17092;DHT22;8661;45.700;4.880;2023-07-30T14:45:50;37.90;47.30
17092;DHT22;8661;45.700;4.880;2023-07-30T14:48:17;37.60;47.50
17092;DHT22;8661;45.700;4.880;2023-07-30T14:50:44;37.40;47.80
17092;DHT22;8661;45.700;4.880;2023-07-30T14:53:11;37.20;49.50
17092;DHT22;8661;45.700;4.880;2023-07-30T14:55:39;36.90;50.00
17092;DHT22;8661;45.700;4.880;2023-07-30T14:58:06;36.30;50.20
17092;DHT22;8661;45.700;4.880;2023-07-30T15:00:34;35.70;49.90
17092;DHT22;8661;45.700;4.880;2023-07-30T15:03:01;35.00;51.30
17092;DHT22;8661;45.700;4.880;2023-07-30T15:05:28;34.40;52.20
17092;DHT22;8661;45.700;4.880;2023-07-30T15:07:55;34.10;53.30
17092;DHT22;8661;45.700;4.880;2023-07-30T15:10:22;33.90;52.60
17092;DHT22;8661;45.700;4.880;2023-07-30T15:12:50;33.50;52.40
17092;DHT22;8661;45.700;4.880;2023-07-30T15:15:17;33.20;52.80
17092;DHT22;8661;45.700;4.880;2023-07-30T15:17:44;33.10;53.00
17092;DHT22;8661;45.700;4.880;2023-07-30T15:20:11;32.70;53.30
17092;DHT22;8661;45.700;4.880;2023-07-30T15:22:38;32.50;53.40
17092;DHT22;8661;45.700;4.880;2023-07-30T15:25:06;32.50;53.80
17092;DHT22;8661;45.700;4.880;2023-07-30T15:27:32;32.40;53.50
17092;DHT22;8661;45.700;4.880;2023-07-30T15:30:01;32.20;53.90
17092;DHT22;8661;45.700;4.880;2023-07-30T15:32:29;31.90;54.30
17092;DHT22;8661;45.700;4.880;2023-07-30T15:34:56;31.30;55.10
17092;DHT22;8661;45.700;4.880;2023-07-30T15:37:23;31.30;55.10
17092;DHT22;8661;45.700;4.880;2023-07-30T15:39:50;31.30;55.10
17092;DHT22;8661;45.700;4.880;2023-07-30T15:42:17;31.40;55.50
17092;DHT22;8661;45.700;4.880;2023-07-30T15:44:44;31.40;55.80
17092;DHT22;8661;45.700;4.880;2023-07-30T15:47:12;31.30;55.70